Svyataya Anna — UUCV — position and weather

sailwx.info

Track history (hours):
 
Tides and Currents Weather Stations Pressure Air Temp Water Temp Dewpoint Dewpoint Depression Visibility Wind Speed Wind Dir Waves Ship Positions

Svyataya Anna

Last reported at 2018-Feb-16 01:27 UTC. Time now 2018-Feb-20 09:59 UTC.
Position N 46°36' E 031°43'.

Length 93 m; draft 3.3 m.

Type: Cargo ship. MMSI: 272068800.

Date/timePositionNaut miles runAvg speedWind from/ knotsBaromVisibWave heightAir tempDewpointWater temp
2018-Feb-16 01:27N 46°36' E 031°43'0 0.7
2018-Feb-16 00:58N 46°36' E 031°43'3 5.4
2018-Feb-16 00:23N 46°36' E 031°48'2 5.1
2018-Feb-16 00:00N 46°35' E 031°50'3 5.2
2018-Feb-15 23:31N 46°34' E 031°54'3 5.1
2018-Feb-15 23:00N 46°33' E 031°57'3 5.1
2018-Feb-15 22:29N 46°33' E 032°01'  
2018-Feb-10 08:52N 46°33' E 031°58'2 5.6
2018-Feb-10 08:30N 46°34' E 031°56'3 5.4
2018-Feb-10 08:00N 46°35' E 031°52'4 5.2
2018-Feb-10 07:18N 46°36' E 031°47'2 5.1
2018-Feb-10 06:59N 46°36' E 031°44'  
Track history (hours):
 
Tides and Currents Weather Stations Pressure Air Temp Water Temp Dewpoint Dewpoint Depression Visibility Wind Speed Wind Dir Waves Ship Positions

Svyataya Anna

Last reported at 2018-Feb-16 01:27 UTC. Time now 2018-Feb-20 09:59 UTC.
Position N 46°36' E 031°43'.

Length 93 m; draft 3.3 m.

Type: Cargo ship. MMSI: 272068800.

Date/timePositionNaut miles runAvg speedWind from/ knotsBaromVisibWave heightAir tempDewpointWater temp
2018-Feb-16 01:27N 46°36' E 031°43'0 0.7
2018-Feb-16 00:58N 46°36' E 031°43'3 5.4
2018-Feb-16 00:23N 46°36' E 031°48'2 5.1
2018-Feb-16 00:00N 46°35' E 031°50'3 5.2
2018-Feb-15 23:31N 46°34' E 031°54'3 5.1
2018-Feb-15 23:00N 46°33' E 031°57'3 5.1
2018-Feb-15 22:29N 46°33' E 032°01'  
2018-Feb-10 08:52N 46°33' E 031°58'2 5.6
2018-Feb-10 08:30N 46°34' E 031°56'3 5.4
2018-Feb-10 08:00N 46°35' E 031°52'4 5.2
2018-Feb-10 07:18N 46°36' E 031°47'2 5.1
2018-Feb-10 06:59N 46°36' E 031°44'  

Dump ship's entire track history